ADDS METAR Data INFO
IDs: Format: Raw Decoded Include TAF

Data at: 2251 UTC 22 Jun 2018

KMER 222245Z 32012G22KT 10SM SKC 39/09 A2981
KMER 222145Z 33010KT 10SM SKC 38/08 A2983
KMER 222045Z 32010KT 10SM SKC 37/08 A2985
KMER 221945Z 32010KT 10SM SKC 36/08 A2987
KMER 221845Z 32007KT 10SM SKC 34/11 A2989
KMER 221745Z 34008KT 10SM SKC 32/10 A2990
KMER 221645Z 32007KT 10SM SKC 29/12 A2991
KMER 221545Z 32005KT 10SM SKC 27/11 A2992
KMER 221445Z 34005KT 10SM SKC 22/11 A2992
KMER 221345Z 00000KT 10SM SKC 17/12 A2991
KMER 220345Z 33010KT 10SM SKC 26/12 A2987
KMER 220245Z 33010KT 10SM SKC 29/12 A2987
KMER 220145Z 33010KT 10SM SKC 33/08 A2987
KMER 220045Z 33015KT 10SM SKC 34/08 A2988
KMER 212345Z 33015KT 10SM SKC 36/06 A2989
KMER 212245Z 32010KT 10SM SKC 36/07 A2990
KMER 212145Z 30008KT 10SM SKC 35/06 A2992
KMER 212045Z 33010KT 10SM SKC 34/08 A2993
KMER 211945Z 33010KT 10SM SKC 32/07 A2995
KMER 211845Z 32010KT 10SM SKC 30/08 A2995
KMER 211745Z 32010KT 10SM SKC 28/07 A2996
KMER 211645Z 31010KT 10SM SKC 26/08 A2996
KMER 211545Z 31008KT 10SM SKC 23/08 A2996
KMER 211445Z 31008KT 10SM SKC 19/09 A2996
KMER 211345Z 31005KT 10SM SKC 15/09 A2995